createdAt,value
2023-12-10T00:00:40.580Z,29.30
2023-12-10T00:02:42.179Z,29.41
2023-12-10T00:04:45.028Z,29.26
2023-12-10T00:06:46.717Z,28.98
2023-12-10T00:08:48.775Z,29.21
2023-12-10T00:10:50.435Z,28.85
2023-12-10T00:12:52.128Z,28.96
2023-12-10T00:14:55.756Z,29.23
2023-12-10T00:16:57.347Z,29.05
2023-12-10T00:18:59.164Z,29.29
2023-12-10T00:21:00.926Z,29.33
2023-12-10T00:23:02.645Z,28.92
2023-12-10T00:25:04.721Z,28.98
2023-12-10T00:27:06.329Z,28.95
2023-12-10T00:29:07.914Z,28.81
2023-12-10T00:31:10.102Z,28.89
2023-12-10T00:33:13.383Z,29.09
2023-12-10T00:35:15.274Z,28.93
2023-12-10T00:37:17.377Z,28.93
2023-12-10T00:39:19.085Z,29.37
2023-12-10T00:41:20.774Z,29.35
2023-12-10T00:43:22.399Z,28.97
2023-12-10T00:45:24.348Z,29.25
2023-12-10T00:47:26.086Z,29.17
2023-12-10T00:49:27.955Z,28.82
2023-12-10T00:51:29.665Z,29.21
2023-12-10T00:53:31.284Z,28.82
2023-12-10T00:55:32.913Z,28.90
2023-12-10T00:57:35.501Z,29.25
2023-12-10T00:59:37.354Z,29.29
2023-12-10T01:01:39.093Z,29.08
2023-12-10T01:03:40.911Z,28.88
2023-12-10T01:05:42.726Z,29.14
2023-12-10T01:07:44.549Z,28.75
2023-12-10T01:09:46.266Z,28.76
2023-12-10T01:11:47.948Z,28.78
2023-12-10T01:13:49.593Z,28.91
2023-12-10T01:15:55.945Z,29.11
2023-12-10T01:18:02.007Z,28.78
2023-12-10T01:20:04.992Z,29.23
2023-12-10T01:22:06.551Z,29.08
2023-12-10T01:24:09.328Z,28.76
2023-12-10T01:26:14.257Z,29.10
2023-12-10T01:28:16.043Z,28.81
2023-12-10T01:30:17.901Z,29.17
2023-12-10T01:32:21.882Z,29.15
2023-12-10T01:34:23.787Z,28.98
2023-12-10T01:36:25.781Z,29.11
2023-12-10T01:38:27.445Z,28.98
2023-12-10T01:40:29.029Z,28.80
2023-12-10T01:42:30.847Z,29.21
2023-12-10T01:44:33.175Z,28.75
2023-12-10T01:46:34.758Z,28.97
2023-12-10T01:48:36.772Z,28.84
2023-12-10T01:50:39.984Z,29.02
2023-12-10T01:52:43.098Z,28.78
2023-12-10T01:54:45.020Z,28.90
2023-12-10T01:56:59.297Z,28.93
2023-12-10T01:59:06.352Z,28.75
2023-12-10T02:01:08.386Z,28.74
2023-12-10T02:03:10.439Z,28.81
2023-12-10T02:05:12.320Z,28.75
2023-12-10T02:07:14.887Z,28.91
2023-12-10T02:09:19.633Z,29.09
2023-12-10T02:11:21.749Z,28.58
2023-12-10T02:13:24.247Z,28.91
2023-12-10T02:15:28.792Z,28.58
2023-12-10T02:17:30.495Z,28.67
2023-12-10T02:19:32.733Z,28.76
2023-12-10T02:21:36.004Z,28.62
2023-12-10T02:24:03.117Z,28.72
2023-12-10T02:26:05.248Z,28.91
2023-12-10T02:28:08.596Z,28.93
2023-12-10T02:30:10.873Z,28.66
2023-12-10T02:32:12.615Z,28.66
2023-12-10T02:34:14.325Z,28.84
2023-12-10T02:36:15.972Z,28.88
2023-12-10T02:38:22.183Z,28.84
2023-12-10T02:40:23.993Z,28.86
2023-12-10T02:42:25.727Z,29.07
2023-12-10T02:44:27.474Z,28.54
2023-12-10T02:46:29.064Z,28.25
2023-12-10T02:48:30.767Z,28.52
2023-12-10T02:50:32.391Z,28.55
2023-12-10T02:52:37.280Z,28.64
2023-12-10T02:54:38.920Z,28.51
2023-12-10T02:56:40.579Z,28.57
2023-12-10T02:58:42.177Z,28.65
2023-12-10T03:00:44.606Z,28.60
2023-12-10T03:02:46.416Z,28.59
2023-12-10T03:04:48.327Z,28.50
2023-12-10T03:06:50.143Z,28.60
2023-12-10T03:08:51.789Z,28.53
2023-12-10T03:10:53.640Z,28.59
2023-12-10T03:12:56.494Z,28.40
2023-12-10T03:14:58.278Z,28.74
2023-12-10T03:16:59.915Z,28.54
2023-12-10T03:19:01.686Z,28.72
2023-12-10T03:21:04.068Z,28.46
2023-12-10T03:23:05.731Z,28.84
2023-12-10T03:25:07.892Z,28.78
2023-12-10T03:27:09.598Z,28.57
2023-12-10T03:29:11.230Z,28.40
2023-12-10T03:31:12.884Z,28.84
2023-12-10T03:33:14.687Z,28.85
2023-12-10T03:35:16.357Z,28.49
2023-12-10T03:37:17.969Z,28.77
2023-12-10T03:39:19.570Z,29.10
2023-12-10T03:41:21.209Z,28.59
2023-12-10T03:43:22.825Z,28.73
2023-12-10T03:45:24.441Z,28.75
2023-12-10T03:47:26.094Z,28.62
2023-12-10T03:49:29.540Z,28.79
2023-12-10T03:51:32.597Z,28.44
2023-12-10T03:53:34.580Z,28.41
2023-12-10T03:55:36.231Z,28.84
2023-12-10T03:57:37.939Z,28.58
2023-12-10T03:59:39.628Z,28.82
2023-12-10T04:01:44.554Z,28.80
2023-12-10T04:03:46.420Z,28.88
2023-12-10T04:05:48.259Z,28.61
2023-12-10T04:07:49.958Z,28.46
2023-12-10T04:09:51.572Z,28.74
2023-12-10T04:11:56.531Z,28.76
2023-12-10T04:13:58.193Z,28.56
2023-12-10T04:16:01.631Z,28.34
2023-12-10T04:18:03.347Z,28.78
2023-12-10T04:20:06.865Z,28.66
2023-12-10T04:22:08.728Z,28.82
2023-12-10T04:24:10.481Z,28.43
2023-12-10T04:26:12.327Z,28.82
2023-12-10T04:28:14.021Z,28.67
2023-12-10T04:30:15.813Z,28.63
2023-12-10T04:32:18.124Z,28.44
2023-12-10T04:34:19.894Z,28.36
2023-12-10T04:36:21.689Z,28.71
2023-12-10T04:38:23.628Z,28.71
2023-12-10T04:40:25.380Z,28.44
2023-12-10T04:42:27.598Z,28.72
2023-12-10T04:44:29.548Z,28.42
2023-12-10T04:46:31.225Z,28.74
2023-12-10T04:48:33.821Z,28.50
2023-12-10T04:50:35.592Z,28.44
2023-12-10T04:52:37.187Z,28.68
2023-12-10T04:54:38.840Z,28.53
2023-12-10T04:56:40.778Z,28.33
2023-12-10T04:58:42.445Z,28.73
2023-12-10T05:00:44.920Z,28.65
2023-12-10T05:02:46.520Z,28.44
2023-12-10T05:04:48.161Z,28.32
2023-12-10T05:06:49.768Z,28.36
2023-12-10T05:08:51.402Z,28.75
2023-12-10T05:10:53.149Z,28.81
2023-12-10T05:12:54.833Z,28.71
2023-12-10T05:14:57.071Z,28.63
2023-12-10T05:16:58.707Z,28.71
2023-12-10T05:19:00.522Z,28.53
2023-12-10T05:21:02.365Z,28.61
2023-12-10T05:23:04.193Z,28.65
2023-12-10T05:25:06.009Z,28.37
2023-12-10T05:27:07.776Z,28.50
2023-12-10T05:29:09.472Z,28.77
2023-12-10T05:31:11.376Z,28.83
2023-12-10T05:33:13.206Z,28.44
2023-12-10T05:35:15.105Z,28.73
2023-12-10T05:37:16.841Z,28.43
2023-12-10T05:39:18.575Z,28.81
2023-12-10T05:41:20.319Z,28.28
2023-12-10T05:43:21.920Z,28.32
2023-12-10T05:45:23.617Z,28.22
2023-12-10T05:47:25.553Z,28.60
2023-12-10T05:49:27.328Z,28.72
2023-12-10T05:51:29.121Z,28.63
2023-12-10T05:53:30.793Z,28.63
2023-12-10T05:55:32.578Z,28.63
2023-12-10T05:57:34.259Z,28.76
2023-12-10T05:59:35.966Z,28.78
2023-12-10T06:01:37.746Z,28.33
2023-12-10T06:03:39.505Z,28.57
2023-12-10T06:05:41.258Z,28.28
2023-12-10T06:07:42.908Z,28.26
2023-12-10T06:09:45.191Z,28.75
2023-12-10T06:11:46.869Z,28.40
2023-12-10T06:13:48.587Z,28.41
2023-12-10T06:15:50.315Z,28.80
2023-12-10T06:17:51.990Z,28.50
2023-12-10T06:19:54.407Z,28.41
2023-12-10T06:21:56.317Z,28.42
2023-12-10T06:23:58.063Z,28.48
2023-12-10T06:25:59.752Z,28.73
2023-12-10T06:28:01.428Z,28.64
2023-12-10T06:30:03.147Z,28.73
2023-12-10T06:32:05.244Z,28.28
2023-12-10T06:34:07.165Z,28.30
2023-12-10T06:36:09.314Z,28.30
2023-12-10T06:38:11.023Z,28.49
2023-12-10T06:40:12.770Z,28.17
2023-12-10T06:42:14.454Z,28.72
2023-12-10T06:44:22.441Z,28.61
2023-12-10T06:46:24.095Z,28.45
2023-12-10T06:48:26.762Z,28.35
2023-12-10T06:50:28.604Z,28.28
2023-12-10T06:52:30.507Z,28.61
2023-12-10T06:54:32.422Z,28.57
2023-12-10T06:56:39.416Z,28.44
2023-12-10T06:58:41.322Z,28.58
2023-12-10T07:00:42.988Z,28.28
2023-12-10T07:02:44.750Z,28.38
2023-12-10T07:04:46.439Z,28.19
2023-12-10T07:06:48.152Z,28.32
2023-12-10T07:08:49.803Z,28.20
2023-12-10T07:10:51.508Z,28.21
2023-12-10T07:12:54.724Z,28.33
2023-12-10T07:14:56.525Z,28.65
2023-12-10T07:16:58.248Z,28.19
2023-12-10T07:19:00.074Z,28.67
2023-12-10T07:21:01.917Z,28.60
2023-12-10T07:23:03.696Z,28.64
2023-12-10T07:25:06.106Z,28.54
2023-12-10T07:27:07.792Z,28.45
2023-12-10T07:29:09.404Z,28.28
2023-12-10T07:31:11.100Z,28.31
2023-12-10T07:33:12.907Z,28.31
2023-12-10T07:37:16.240Z,28.51
2023-12-10T07:39:18.283Z,28.58
2023-12-10T07:41:19.918Z,28.22
2023-12-10T07:43:21.575Z,28.62
2023-12-10T07:45:23.281Z,28.69
2023-12-10T07:47:24.888Z,28.52
2023-12-10T07:49:26.940Z,28.71
2023-12-10T07:51:28.661Z,28.39
2023-12-10T07:53:30.446Z,28.64
2023-12-10T07:55:32.132Z,28.30
2023-12-10T07:57:34.014Z,28.14
2023-12-10T07:59:35.765Z,28.45
2023-12-10T08:01:37.499Z,28.41
2023-12-10T08:03:39.475Z,28.38
2023-12-10T08:05:41.372Z,28.17
2023-12-10T08:07:43.067Z,28.22
2023-12-10T08:09:44.769Z,28.51
2023-12-10T08:11:46.457Z,28.63
2023-12-10T08:13:48.737Z,28.20
2023-12-10T08:15:50.705Z,28.59
2023-12-10T08:17:52.751Z,28.57
2023-12-10T08:19:55.421Z,28.17
2023-12-10T08:21:57.313Z,28.37
2023-12-10T08:23:59.004Z,28.33
2023-12-10T08:26:01.412Z,28.46
2023-12-10T08:28:03.435Z,28.13
2023-12-10T08:30:05.537Z,28.23
2023-12-10T08:32:07.739Z,28.20
2023-12-10T08:34:09.507Z,28.40
2023-12-10T08:36:11.441Z,28.07
2023-12-10T08:38:13.033Z,28.39
2023-12-10T08:40:15.987Z,28.21
2023-12-10T08:42:17.702Z,28.27
2023-12-10T08:44:19.591Z,28.17
2023-12-10T08:46:21.386Z,28.54
2023-12-10T08:48:23.079Z,28.57
2023-12-10T08:50:27.185Z,28.50
2023-12-10T08:52:28.957Z,28.28
2023-12-10T08:54:30.811Z,28.33
2023-12-10T08:56:32.511Z,28.27
2023-12-10T08:58:34.335Z,28.71
2023-12-10T09:00:36.035Z,28.56
2023-12-10T09:02:37.748Z,28.42
2023-12-10T09:04:39.427Z,28.60
2023-12-10T09:06:41.230Z,28.30
2023-12-10T09:08:43.121Z,28.72
2023-12-10T09:10:45.049Z,28.27
2023-12-10T09:12:46.720Z,28.18
2023-12-10T09:14:48.305Z,28.59
2023-12-10T09:16:49.978Z,28.29
2023-12-10T09:18:51.707Z,28.67
2023-12-10T09:20:54.132Z,28.60
2023-12-10T09:22:55.729Z,28.43
2023-12-10T09:24:57.542Z,28.46
2023-12-10T09:27:01.249Z,28.53
2023-12-10T09:29:04.151Z,28.65
2023-12-10T09:31:05.854Z,28.51
2023-12-10T09:33:07.562Z,28.46
2023-12-10T09:35:09.481Z,28.16
2023-12-10T09:37:14.764Z,28.63
2023-12-10T09:39:16.499Z,28.26
2023-12-10T09:41:18.211Z,28.28
2023-12-10T09:43:19.931Z,28.49
2023-12-10T09:45:21.619Z,28.20
2023-12-10T09:47:25.007Z,28.14
2023-12-10T09:49:28.732Z,28.57
2023-12-10T09:51:30.458Z,28.57
2023-12-10T09:53:32.067Z,28.36
2023-12-10T09:55:33.678Z,28.12
2023-12-10T09:57:35.349Z,28.19
2023-12-10T09:59:37.325Z,28.37
2023-12-10T10:01:39.015Z,28.52
2023-12-10T10:03:42.327Z,28.51
2023-12-10T10:05:44.073Z,28.33
2023-12-10T10:07:45.682Z,28.63
2023-12-10T10:09:47.406Z,28.68
2023-12-10T10:11:49.227Z,28.49
2023-12-10T10:13:54.692Z,28.31
2023-12-10T10:15:56.492Z,28.61
2023-12-10T10:18:01.772Z,28.36
2023-12-10T10:20:07.421Z,28.68
2023-12-10T10:22:09.035Z,28.54
2023-12-10T10:24:10.905Z,28.40
2023-12-10T10:26:12.740Z,28.65
2023-12-10T10:28:16.105Z,28.68
2023-12-10T10:30:17.855Z,28.26
2023-12-10T10:32:20.661Z,28.76
2023-12-10T10:34:23.451Z,28.35
2023-12-10T10:36:25.642Z,28.37
2023-12-10T10:38:28.956Z,28.73
2023-12-10T10:40:31.313Z,28.27
2023-12-10T10:42:36.163Z,28.61
2023-12-10T10:44:42.634Z,28.74
2023-12-10T10:46:44.386Z,28.31
2023-12-10T10:48:48.201Z,28.31
2023-12-10T10:50:50.012Z,28.69
2023-12-10T10:52:56.127Z,28.18
2023-12-10T10:54:58.124Z,28.34
2023-12-10T10:56:59.961Z,28.24
2023-12-10T10:59:01.767Z,28.25
2023-12-10T11:01:03.832Z,28.57
2023-12-10T11:03:08.598Z,28.14
2023-12-10T11:05:10.420Z,28.48
2023-12-10T11:07:12.148Z,28.20
2023-12-10T11:09:13.850Z,28.54
2023-12-10T11:11:15.493Z,28.35
2023-12-10T11:13:43.234Z,28.25
2023-12-10T11:15:45.086Z,28.26
2023-12-10T11:18:09.737Z,28.36
2023-12-10T11:20:44.715Z,28.49
2023-12-10T11:22:46.339Z,28.47
2023-12-10T11:24:51.102Z,28.52
2023-12-10T11:26:52.713Z,28.47
2023-12-10T11:28:54.355Z,28.11
2023-12-10T11:30:56.014Z,28.13
2023-12-10T11:32:57.776Z,28.61
2023-12-10T11:34:59.581Z,28.11
2023-12-10T11:37:01.308Z,28.50
2023-12-10T11:41:09.814Z,28.49
2023-12-10T11:43:11.624Z,28.51
2023-12-10T11:45:14.538Z,28.12
2023-12-10T11:51:24.512Z,28.54
2023-12-10T11:53:26.460Z,28.15
2023-12-10T11:55:28.933Z,28.48
2023-12-10T12:03:55.039Z,28.20
2023-12-10T12:05:57.213Z,28.47
2023-12-10T12:08:00.795Z,28.09
2023-12-10T12:12:09.655Z,28.55
2023-12-10T12:14:16.518Z,28.06
2023-12-10T12:16:18.268Z,28.23
2023-12-10T12:18:24.964Z,28.08
2023-12-10T12:20:27.253Z,28.43
2023-12-10T12:22:29.138Z,28.57
2023-12-10T12:24:30.922Z,28.34
2023-12-10T12:28:39.375Z,28.55
2023-12-10T12:30:40.987Z,28.22
2023-12-10T12:32:42.862Z,28.54
2023-12-10T12:41:04.666Z,28.44
2023-12-10T12:43:06.339Z,28.68
2023-12-10T12:45:08.728Z,28.63
2023-12-10T12:49:17.203Z,28.46
2023-12-10T12:53:25.487Z,28.68
2023-12-10T12:55:28.017Z,28.84
2023-12-10T12:57:30.219Z,28.80
2023-12-10T12:59:32.031Z,29.01
2023-12-10T13:01:33.747Z,28.86
2023-12-10T13:03:35.559Z,29.22
2023-12-10T13:05:37.316Z,29.10
2023-12-10T13:07:39.140Z,28.59
2023-12-10T13:09:42.626Z,28.80
2023-12-10T13:11:44.728Z,29.16
2023-12-10T13:13:46.487Z,29.12
2023-12-10T13:15:48.311Z,28.94
2023-12-10T13:17:49.922Z,29.17
2023-12-10T13:19:52.198Z,29.22
2023-12-10T13:21:54.143Z,29.45
2023-12-10T13:23:55.831Z,29.07
2023-12-10T13:25:57.496Z,29.48
2023-12-10T13:27:59.112Z,29.63
2023-12-10T13:30:00.743Z,29.72
2023-12-10T13:32:02.327Z,29.89
2023-12-10T13:34:06.279Z,29.85
2023-12-10T13:36:08.257Z,29.70
2023-12-10T13:38:10.166Z,29.56
2023-12-10T13:40:12.774Z,29.89
2023-12-10T13:42:15.133Z,30.10
2023-12-10T13:44:16.725Z,29.90
2023-12-10T13:46:18.748Z,29.49
2023-12-10T13:48:20.593Z,29.74
2023-12-10T13:50:22.355Z,29.71
2023-12-10T13:52:23.946Z,29.53
2023-12-10T13:54:25.633Z,29.87
2023-12-10T13:56:27.590Z,29.86
2023-12-10T14:02:42.349Z,29.80
2023-12-10T14:04:44.815Z,29.88
2023-12-10T14:06:46.536Z,29.88
2023-12-10T14:10:54.776Z,30.22
2023-12-10T14:12:56.645Z,30.01
2023-12-10T14:14:58.307Z,30.03
2023-12-10T14:16:59.860Z,30.03
2023-12-10T14:19:01.653Z,30.18
2023-12-10T14:23:10.354Z,30.59
2023-12-10T14:25:12.040Z,30.57
2023-12-10T14:27:13.824Z,30.64
2023-12-10T14:29:15.485Z,30.51
2023-12-10T14:31:17.103Z,30.84
2023-12-10T14:35:25.298Z,30.60
2023-12-10T14:37:27.339Z,30.72
2023-12-10T14:39:29.193Z,30.86
2023-12-10T14:41:30.956Z,30.61
2023-12-10T14:43:32.588Z,30.61
2023-12-10T14:45:34.236Z,30.51
2023-12-10T14:47:36.850Z,30.39
2023-12-10T14:49:38.591Z,30.69
2023-12-10T14:51:40.427Z,30.83
2023-12-10T14:53:42.308Z,30.82
2023-12-10T14:55:45.378Z,30.52
2023-12-10T14:57:47.167Z,31.05
2023-12-10T14:59:49.521Z,30.67
2023-12-10T15:02:01.627Z,30.96
2023-12-10T15:04:11.156Z,31.07
2023-12-10T15:06:12.915Z,31.06
2023-12-10T15:08:14.551Z,31.23
2023-12-10T15:10:16.383Z,30.83
2023-12-10T15:12:18.038Z,31.16
2023-12-10T15:14:19.719Z,31.18
2023-12-10T15:16:21.468Z,30.81
2023-12-10T15:18:23.129Z,30.93
2023-12-10T15:20:24.919Z,31.05
2023-12-10T15:22:26.663Z,30.92
2023-12-10T15:24:30.684Z,31.33
2023-12-10T15:26:32.587Z,31.29
2023-12-10T15:28:34.380Z,31.41
2023-12-10T15:30:36.996Z,31.30
2023-12-10T15:32:39.457Z,31.17
2023-12-10T15:34:41.179Z,31.18
2023-12-10T15:36:42.878Z,31.27
2023-12-10T15:38:44.528Z,31.38
2023-12-10T15:40:46.153Z,31.58
2023-12-10T15:42:47.850Z,31.47
2023-12-10T15:44:49.435Z,31.63
2023-12-10T15:46:51.070Z,31.72
2023-12-10T15:48:54.023Z,31.79
2023-12-10T15:50:56.236Z,31.94
2023-12-10T15:52:57.976Z,31.66
2023-12-10T15:55:00.365Z,31.67
2023-12-10T15:57:04.855Z,31.90
2023-12-10T15:59:06.575Z,32.28
2023-12-10T16:01:08.585Z,31.82
2023-12-10T16:03:10.387Z,32.31
2023-12-10T16:05:12.155Z,32.19
2023-12-10T16:07:16.605Z,32.10
2023-12-10T16:09:19.569Z,32.15
2023-12-10T16:11:21.241Z,32.07
2023-12-10T16:13:24.083Z,31.96
2023-12-10T16:15:26.417Z,31.73
2023-12-10T16:17:28.174Z,31.78
2023-12-10T16:19:29.941Z,31.71
2023-12-10T16:21:31.921Z,31.90
2023-12-10T16:23:33.642Z,32.01
2023-12-10T16:25:35.743Z,31.72
2023-12-10T16:27:37.469Z,31.97
2023-12-10T16:29:39.176Z,31.76
2023-12-10T16:31:40.926Z,32.07
2023-12-10T16:33:43.516Z,31.79
2023-12-10T16:35:45.302Z,31.96
2023-12-10T16:37:47.043Z,31.85
2023-12-10T16:39:48.948Z,31.80
2023-12-10T16:41:50.723Z,31.68
2023-12-10T16:43:52.494Z,31.59
2023-12-10T16:45:54.971Z,31.73
2023-12-10T16:47:56.709Z,31.95
2023-12-10T16:49:58.643Z,31.58
2023-12-10T16:52:00.509Z,31.79
2023-12-10T16:54:02.263Z,31.97
2023-12-10T16:56:04.063Z,31.88
2023-12-10T16:58:05.673Z,31.95
2023-12-10T17:00:08.211Z,31.83
2023-12-10T17:02:10.283Z,31.70
2023-12-10T17:04:12.030Z,31.80
2023-12-10T17:06:13.751Z,32.13
2023-12-10T17:08:15.460Z,31.89
2023-12-10T17:10:17.088Z,31.85
2023-12-10T17:12:18.921Z,31.61
2023-12-10T17:14:20.802Z,31.88
2023-12-10T17:16:22.456Z,31.74
2023-12-10T17:18:24.252Z,31.71
2023-12-10T17:20:26.016Z,31.92
2023-12-10T17:22:27.733Z,31.98
2023-12-10T17:24:29.361Z,31.87
2023-12-10T17:26:31.175Z,32.03
2023-12-10T17:28:32.922Z,31.89
2023-12-10T17:30:34.658Z,32.08
2023-12-10T17:32:36.569Z,32.00
2023-12-10T17:34:38.178Z,32.16
2023-12-10T17:36:39.900Z,31.62
2023-12-10T17:38:41.495Z,31.78
2023-12-10T17:40:43.123Z,31.89
2023-12-10T17:42:44.774Z,31.73
2023-12-10T17:44:53.909Z,31.68
2023-12-10T17:46:58.768Z,31.95
2023-12-10T17:49:00.559Z,31.89
2023-12-10T17:51:09.860Z,31.85
2023-12-10T17:53:17.528Z,32.12
2023-12-10T17:55:19.366Z,32.04
2023-12-10T17:57:21.116Z,31.79
2023-12-10T17:59:22.754Z,31.97
2023-12-10T18:01:24.750Z,31.86
2023-12-10T18:03:26.561Z,31.84
2023-12-10T18:05:28.460Z,31.84
2023-12-10T18:07:30.467Z,31.80
2023-12-10T18:09:32.359Z,31.84
2023-12-10T18:11:34.167Z,31.85
2023-12-10T18:13:35.837Z,31.98
2023-12-10T18:15:37.824Z,31.90
2023-12-10T18:17:39.943Z,31.54
2023-12-10T18:19:41.700Z,31.83
2023-12-10T18:21:43.788Z,32.22
2023-12-10T18:23:46.291Z,31.83
2023-12-10T18:25:47.942Z,31.87
2023-12-10T18:27:50.126Z,32.11
2023-12-10T18:29:51.895Z,31.94
2023-12-10T18:31:54.107Z,31.83
2023-12-10T18:33:56.010Z,32.06
2023-12-10T18:35:57.798Z,32.14
2023-12-10T18:37:59.508Z,31.81
2023-12-10T18:40:01.406Z,32.22
2023-12-10T18:42:03.255Z,32.10
2023-12-10T18:44:05.690Z,32.18
2023-12-10T18:46:07.343Z,31.85
2023-12-10T18:48:09.979Z,31.85
2023-12-10T18:50:11.691Z,31.88
2023-12-10T18:52:13.431Z,32.14
2023-12-10T18:54:15.239Z,31.96
2023-12-10T18:56:17.347Z,32.04
2023-12-10T18:58:19.211Z,31.70
2023-12-10T19:00:23.524Z,31.95
2023-12-10T19:02:25.218Z,32.01
2023-12-10T19:04:27.055Z,31.73
2023-12-10T19:06:29.023Z,32.07
2023-12-10T19:08:30.929Z,32.19
2023-12-10T19:10:32.658Z,31.94
2023-12-10T19:12:34.449Z,32.10
2023-12-10T19:14:36.271Z,31.84
2023-12-10T19:16:37.933Z,31.93
2023-12-10T19:18:43.446Z,31.75
2023-12-10T19:20:45.242Z,31.85
2023-12-10T19:22:46.972Z,32.18
2023-12-10T19:24:48.739Z,32.02
2023-12-10T19:26:50.699Z,32.01
2023-12-10T19:28:53.273Z,31.80
2023-12-10T19:30:55.148Z,31.88
2023-12-10T19:32:56.989Z,31.90
2023-12-10T19:34:58.682Z,32.08
2023-12-10T19:37:00.331Z,32.11
2023-12-10T19:39:02.051Z,31.90
2023-12-10T19:41:03.916Z,31.82
2023-12-10T19:43:05.637Z,31.76
2023-12-10T19:45:07.647Z,32.00
2023-12-10T19:47:09.356Z,31.87
2023-12-10T19:49:10.979Z,32.03
2023-12-10T19:51:12.654Z,31.61
2023-12-10T19:53:14.257Z,31.77
2023-12-10T19:55:16.132Z,31.44
2023-12-10T19:57:17.957Z,31.76
2023-12-10T19:59:23.994Z,31.52
2023-12-10T20:01:25.911Z,31.50
2023-12-10T20:03:28.622Z,31.67
2023-12-10T20:05:31.136Z,31.73
2023-12-10T20:07:32.933Z,32.03
2023-12-10T20:09:34.918Z,31.87
2023-12-10T20:11:36.644Z,31.58
2023-12-10T20:13:38.568Z,31.51
2023-12-10T20:15:40.588Z,31.82
2023-12-10T20:17:42.581Z,31.42
2023-12-10T20:19:45.400Z,31.68
2023-12-10T20:21:47.180Z,31.82
2023-12-10T20:23:49.663Z,31.71
2023-12-10T20:25:51.325Z,31.90
2023-12-10T20:27:53.763Z,31.58
2023-12-10T20:29:55.656Z,31.58
2023-12-10T20:31:57.351Z,31.63
2023-12-10T20:33:59.350Z,31.67
2023-12-10T20:36:03.266Z,31.91
2023-12-10T20:38:07.705Z,31.49
2023-12-10T20:40:09.642Z,31.79
2023-12-10T20:42:11.356Z,31.78
2023-12-10T20:44:12.967Z,31.85
2023-12-10T20:46:14.774Z,31.29
2023-12-10T20:48:17.178Z,31.54
2023-12-10T20:50:20.460Z,31.76
2023-12-10T20:52:22.157Z,31.54
2023-12-10T20:54:23.828Z,31.36
2023-12-10T20:56:25.645Z,31.45
2023-12-10T20:58:27.633Z,31.38
2023-12-10T21:00:34.430Z,31.69
2023-12-10T21:02:36.355Z,31.69
2023-12-10T21:04:39.986Z,31.82
2023-12-10T21:06:41.850Z,31.34
2023-12-10T21:08:43.613Z,31.67
2023-12-10T21:10:45.453Z,31.79
2023-12-10T21:12:47.122Z,31.39
2023-12-10T21:14:48.900Z,31.78
2023-12-10T21:16:50.573Z,31.71
2023-12-10T21:18:52.516Z,31.49
2023-12-10T21:20:54.724Z,31.37
2023-12-10T21:22:56.445Z,31.39
2023-12-10T21:24:58.320Z,31.50
2023-12-10T21:27:00.056Z,31.27
2023-12-10T21:29:02.415Z,31.26
2023-12-10T21:31:04.805Z,31.65
2023-12-10T21:33:06.572Z,31.27
2023-12-10T21:35:08.288Z,31.25
2023-12-10T21:37:10.193Z,31.33
2023-12-10T21:39:12.195Z,31.63
2023-12-10T21:41:13.822Z,31.37
2023-12-10T21:43:15.412Z,31.55
2023-12-10T21:45:17.040Z,31.29
2023-12-10T21:47:18.869Z,31.70
2023-12-10T21:49:20.696Z,31.27
2023-12-10T21:51:22.616Z,31.15
2023-12-10T21:53:24.254Z,31.21
2023-12-10T21:55:25.979Z,31.50
2023-12-10T21:57:28.020Z,31.30
2023-12-10T21:59:29.835Z,31.36
2023-12-10T22:01:33.469Z,31.67
2023-12-10T22:03:35.357Z,31.53
2023-12-10T22:05:37.827Z,31.32
2023-12-10T22:07:39.672Z,31.11
2023-12-10T22:09:41.766Z,31.52
2023-12-10T22:11:43.578Z,31.20
2023-12-10T22:13:45.271Z,31.49
2023-12-10T22:15:46.966Z,31.10
2023-12-10T22:17:48.832Z,31.50
2023-12-10T22:19:50.623Z,31.54
2023-12-10T22:21:52.326Z,31.17
2023-12-10T22:23:54.053Z,31.26
2023-12-10T22:25:55.648Z,31.64
2023-12-10T22:27:57.276Z,31.59
2023-12-10T22:30:01.192Z,31.37
2023-12-10T22:34:09.560Z,31.49
2023-12-10T22:36:11.804Z,31.17
2023-12-10T22:38:13.442Z,31.55
2023-12-10T22:40:15.211Z,31.12
2023-12-10T22:42:16.961Z,31.07
2023-12-10T22:46:26.628Z,31.68
2023-12-10T22:48:28.564Z,31.22
2023-12-10T22:50:30.299Z,31.63
2023-12-10T22:52:31.931Z,31.06
2023-12-10T22:54:33.781Z,31.37
2023-12-10T22:58:42.091Z,31.41
2023-12-10T23:00:43.941Z,31.35
2023-12-10T23:02:46.076Z,31.22
2023-12-10T23:04:57.890Z,31.50
2023-12-10T23:06:59.619Z,31.21
2023-12-10T23:09:01.907Z,31.11
2023-12-10T23:11:03.699Z,31.14
2023-12-10T23:13:05.850Z,31.49
2023-12-10T23:15:07.782Z,31.13
2023-12-10T23:19:16.825Z,31.42
2023-12-10T23:21:18.514Z,31.22
2023-12-10T23:23:20.120Z,31.35
2023-12-10T23:25:21.726Z,31.33
2023-12-10T23:27:23.343Z,31.19
2023-12-10T23:29:25.078Z,31.18
2023-12-10T23:31:26.798Z,31.17
2023-12-10T23:37:41.824Z,31.01
2023-12-10T23:39:46.572Z,30.82
2023-12-10T23:41:48.240Z,31.34
2023-12-10T23:43:49.968Z,31.08
2023-12-10T23:45:51.673Z,30.91
2023-12-10T23:47:53.300Z,30.78
2023-12-10T23:49:55.118Z,31.16
2023-12-10T23:51:56.839Z,31.02
2023-12-10T23:53:58.922Z,30.90
2023-12-10T23:56:03.610Z,31.27
2023-12-10T23:58:05.444Z,31.05
